sensor_id;sensor_type;location;lat;lon;timestamp;P1;durP1;ratioP1;P2;durP2;ratioP2
8260;SDS011;64115;50.170;8.242;2023-07-13T00:01:04;1.13;;;1.00;;
8260;SDS011;64115;50.170;8.242;2023-07-13T00:03:31;1.50;;;1.00;;
8260;SDS011;64115;50.170;8.242;2023-07-13T00:06:00;1.67;;;0.90;;
8260;SDS011;64115;50.170;8.242;2023-07-13T00:08:29;3.23;;;1.10;;
8260;SDS011;64115;50.170;8.242;2023-07-13T00:10:59;2.13;;;1.30;;
8260;SDS011;64115;50.170;8.242;2023-07-13T00:13:26;2.33;;;1.20;;
8260;SDS011;64115;50.170;8.242;2023-07-13T00:15:53;1.90;;;1.10;;
8260;SDS011;64115;50.170;8.242;2023-07-13T00:18:21;2.87;;;1.20;;
8260;SDS011;64115;50.170;8.242;2023-07-13T00:20:47;1.67;;;1.20;;
8260;SDS011;64115;50.170;8.242;2023-07-13T00:23:15;3.37;;;1.40;;
8260;SDS011;64115;50.170;8.242;2023-07-13T00:25:42;1.47;;;1.20;;
8260;SDS011;64115;50.170;8.242;2023-07-13T00:28:10;4.07;;;1.47;;
8260;SDS011;64115;50.170;8.242;2023-07-13T00:30:37;0.90;;;0.87;;
8260;SDS011;64115;50.170;8.242;2023-07-13T00:33:05;2.80;;;1.20;;
8260;SDS011;64115;50.170;8.242;2023-07-13T00:35:32;2.03;;;1.03;;
8260;SDS011;64115;50.170;8.242;2023-07-13T00:38:00;2.97;;;1.40;;
8260;SDS011;64115;50.170;8.242;2023-07-13T00:40:27;1.17;;;1.07;;
8260;SDS011;64115;50.170;8.242;2023-07-13T00:42:56;2.90;;;1.20;;
8260;SDS011;64115;50.170;8.242;2023-07-13T00:48:32;1.67;;;1.00;;
8260;SDS011;64115;50.170;8.242;2023-07-13T00:51:02;1.73;;;1.23;;
8260;SDS011;64115;50.170;8.242;2023-07-13T00:53:29;1.20;;;1.07;;
8260;SDS011;64115;50.170;8.242;2023-07-13T00:55:58;2.10;;;1.10;;
8260;SDS011;64115;50.170;8.242;2023-07-13T00:58:29;2.07;;;1.10;;
8260;SDS011;64115;50.170;8.242;2023-07-13T01:00:56;1.30;;;1.07;;
8260;SDS011;64115;50.170;8.242;2023-07-13T01:03:23;2.60;;;1.20;;
8260;SDS011;64115;50.170;8.242;2023-07-13T01:05:51;2.17;;;1.23;;
8260;SDS011;64115;50.170;8.242;2023-07-13T01:08:19;1.33;;;1.00;;
8260;SDS011;64115;50.170;8.242;2023-07-13T01:10:53;2.47;;;1.20;;
8260;SDS011;64115;50.170;8.242;2023-07-13T01:13:21;1.47;;;1.37;;
8260;SDS011;64115;50.170;8.242;2023-07-13T01:15:49;1.10;;;1.00;;
8260;SDS011;64115;50.170;8.242;2023-07-13T01:18:18;1.47;;;1.27;;
8260;SDS011;64115;50.170;8.242;2023-07-13T01:20:50;1.93;;;1.20;;
8260;SDS011;64115;50.170;8.242;2023-07-13T01:23:18;1.37;;;1.20;;
8260;SDS011;64115;50.170;8.242;2023-07-13T01:25:45;2.63;;;1.10;;
8260;SDS011;64115;50.170;8.242;2023-07-13T01:28:12;1.27;;;0.90;;
8260;SDS011;64115;50.170;8.242;2023-07-13T01:30:39;1.97;;;1.53;;
8260;SDS011;64115;50.170;8.242;2023-07-13T01:33:06;1.80;;;1.00;;
8260;SDS011;64115;50.170;8.242;2023-07-13T01:35:34;1.57;;;1.13;;
8260;SDS011;64115;50.170;8.242;2023-07-13T01:38:03;1.53;;;1.37;;
8260;SDS011;64115;50.170;8.242;2023-07-13T01:40:31;1.27;;;1.20;;
8260;SDS011;64115;50.170;8.242;2023-07-13T01:42:58;1.33;;;1.30;;
8260;SDS011;64115;50.170;8.242;2023-07-13T01:45:25;1.70;;;1.20;;
8260;SDS011;64115;50.170;8.242;2023-07-13T01:47:51;1.10;;;1.00;;
8260;SDS011;64115;50.170;8.242;2023-07-13T01:50:18;1.20;;;1.07;;
8260;SDS011;64115;50.170;8.242;2023-07-13T01:52:45;2.60;;;1.20;;
8260;SDS011;64115;50.170;8.242;2023-07-13T01:55:14;1.83;;;1.17;;
8260;SDS011;64115;50.170;8.242;2023-07-13T01:57:40;1.37;;;1.10;;
8260;SDS011;64115;50.170;8.242;2023-07-13T02:00:08;1.70;;;1.10;;
8260;SDS011;64115;50.170;8.242;2023-07-13T02:02:36;3.47;;;1.07;;
8260;SDS011;64115;50.170;8.242;2023-07-13T02:05:03;3.23;;;1.40;;
8260;SDS011;64115;50.170;8.242;2023-07-13T02:07:30;1.33;;;1.10;;
8260;SDS011;64115;50.170;8.242;2023-07-13T02:09:57;1.73;;;1.20;;
8260;SDS011;64115;50.170;8.242;2023-07-13T02:12:25;1.73;;;1.23;;
8260;SDS011;64115;50.170;8.242;2023-07-13T02:14:52;2.83;;;1.33;;
8260;SDS011;64115;50.170;8.242;2023-07-13T02:17:19;1.43;;;1.33;;
8260;SDS011;64115;50.170;8.242;2023-07-13T02:19:45;5.07;;;1.47;;
8260;SDS011;64115;50.170;8.242;2023-07-13T02:22:12;2.57;;;1.33;;
8260;SDS011;64115;50.170;8.242;2023-07-13T02:24:43;2.57;;;1.33;;
8260;SDS011;64115;50.170;8.242;2023-07-13T02:27:09;1.87;;;1.33;;
8260;SDS011;64115;50.170;8.242;2023-07-13T02:29:38;3.23;;;1.10;;
8260;SDS011;64115;50.170;8.242;2023-07-13T02:32:05;2.80;;;1.20;;
8260;SDS011;64115;50.170;8.242;2023-07-13T02:34:32;2.80;;;1.37;;
8260;SDS011;64115;50.170;8.242;2023-07-13T02:36:59;1.53;;;1.40;;
8260;SDS011;64115;50.170;8.242;2023-07-13T02:39:26;2.20;;;1.40;;
8260;SDS011;64115;50.170;8.242;2023-07-13T02:41:52;1.37;;;1.20;;
8260;SDS011;64115;50.170;8.242;2023-07-13T02:44:19;2.60;;;1.30;;
8260;SDS011;64115;50.170;8.242;2023-07-13T02:46:47;1.57;;;1.30;;
8260;SDS011;64115;50.170;8.242;2023-07-13T02:49:14;1.83;;;1.30;;
8260;SDS011;64115;50.170;8.242;2023-07-13T02:51:40;3.83;;;1.70;;
8260;SDS011;64115;50.170;8.242;2023-07-13T02:54:08;2.53;;;1.50;;
8260;SDS011;64115;50.170;8.242;2023-07-13T02:56:36;3.10;;;1.60;;
8260;SDS011;64115;50.170;8.242;2023-07-13T02:59:04;1.00;;;1.00;;
8260;SDS011;64115;50.170;8.242;2023-07-13T03:01:30;1.80;;;1.13;;
8260;SDS011;64115;50.170;8.242;2023-07-13T03:03:59;3.17;;;1.50;;
8260;SDS011;64115;50.170;8.242;2023-07-13T03:06:25;2.77;;;1.20;;
8260;SDS011;64115;50.170;8.242;2023-07-13T03:08:55;4.63;;;1.40;;
8260;SDS011;64115;50.170;8.242;2023-07-13T03:11:22;4.93;;;1.30;;
8260;SDS011;64115;50.170;8.242;2023-07-13T03:13:49;1.47;;;1.20;;
8260;SDS011;64115;50.170;8.242;2023-07-13T03:16:15;2.40;;;1.17;;
8260;SDS011;64115;50.170;8.242;2023-07-13T03:18:42;3.10;;;1.40;;
8260;SDS011;64115;50.170;8.242;2023-07-13T03:21:11;3.73;;;1.40;;
8260;SDS011;64115;50.170;8.242;2023-07-13T03:23:38;1.77;;;1.07;;
8260;SDS011;64115;50.170;8.242;2023-07-13T03:26:05;2.07;;;1.00;;
8260;SDS011;64115;50.170;8.242;2023-07-13T03:28:33;2.20;;;1.30;;
8260;SDS011;64115;50.170;8.242;2023-07-13T03:31:01;4.60;;;1.40;;
8260;SDS011;64115;50.170;8.242;2023-07-13T03:33:29;3.30;;;1.57;;
8260;SDS011;64115;50.170;8.242;2023-07-13T03:35:56;1.27;;;1.00;;
8260;SDS011;64115;50.170;8.242;2023-07-13T03:38:24;6.00;;;1.70;;
8260;SDS011;64115;50.170;8.242;2023-07-13T03:40:51;2.80;;;1.30;;
8260;SDS011;64115;50.170;8.242;2023-07-13T03:43:18;2.43;;;1.13;;
8260;SDS011;64115;50.170;8.242;2023-07-13T03:45:46;1.30;;;1.20;;
8260;SDS011;64115;50.170;8.242;2023-07-13T03:48:13;2.63;;;1.60;;
8260;SDS011;64115;50.170;8.242;2023-07-13T03:50:40;1.80;;;1.13;;
8260;SDS011;64115;50.170;8.242;2023-07-13T03:53:09;2.27;;;1.47;;
8260;SDS011;64115;50.170;8.242;2023-07-13T03:55:37;1.97;;;1.13;;
8260;SDS011;64115;50.170;8.242;2023-07-13T04:00:51;1.70;;;1.10;;
8260;SDS011;64115;50.170;8.242;2023-07-13T04:03:17;1.90;;;1.27;;
8260;SDS011;64115;50.170;8.242;2023-07-13T04:05:44;2.43;;;1.20;;
8260;SDS011;64115;50.170;8.242;2023-07-13T04:08:11;1.37;;;1.00;;
8260;SDS011;64115;50.170;8.242;2023-07-13T04:10:41;1.10;;;1.00;;
8260;SDS011;64115;50.170;8.242;2023-07-13T04:13:08;0.90;;;0.90;;
8260;SDS011;64115;50.170;8.242;2023-07-13T04:15:38;2.43;;;1.23;;
8260;SDS011;64115;50.170;8.242;2023-07-13T04:18:05;1.10;;;1.00;;
8260;SDS011;64115;50.170;8.242;2023-07-13T04:20:32;2.90;;;1.20;;
8260;SDS011;64115;50.170;8.242;2023-07-13T04:22:58;2.20;;;1.47;;
8260;SDS011;64115;50.170;8.242;2023-07-13T04:25:25;1.80;;;1.07;;
8260;SDS011;64115;50.170;8.242;2023-07-13T04:27:53;1.27;;;1.10;;
8260;SDS011;64115;50.170;8.242;2023-07-13T04:30:20;1.90;;;0.97;;
8260;SDS011;64115;50.170;8.242;2023-07-13T04:32:50;1.80;;;1.13;;
8260;SDS011;64115;50.170;8.242;2023-07-13T04:35:18;1.67;;;1.13;;
8260;SDS011;64115;50.170;8.242;2023-07-13T04:37:46;2.23;;;1.13;;
8260;SDS011;64115;50.170;8.242;2023-07-13T04:40:15;1.60;;;1.10;;
8260;SDS011;64115;50.170;8.242;2023-07-13T04:42:42;1.43;;;1.00;;
8260;SDS011;64115;50.170;8.242;2023-07-13T04:45:11;1.43;;;1.23;;
8260;SDS011;64115;50.170;8.242;2023-07-13T04:47:40;1.90;;;1.37;;
8260;SDS011;64115;50.170;8.242;2023-07-13T04:50:08;2.33;;;1.17;;
8260;SDS011;64115;50.170;8.242;2023-07-13T04:52:36;2.17;;;1.30;;
8260;SDS011;64115;50.170;8.242;2023-07-13T04:55:03;5.07;;;1.40;;
8260;SDS011;64115;50.170;8.242;2023-07-13T04:57:31;3.37;;;1.03;;
8260;SDS011;64115;50.170;8.242;2023-07-13T04:59:58;2.10;;;1.30;;
8260;SDS011;64115;50.170;8.242;2023-07-13T05:02:27;1.20;;;1.10;;
8260;SDS011;64115;50.170;8.242;2023-07-13T05:04:56;2.17;;;1.30;;
8260;SDS011;64115;50.170;8.242;2023-07-13T05:07:23;1.93;;;1.20;;
8260;SDS011;64115;50.170;8.242;2023-07-13T05:09:49;1.43;;;1.20;;
8260;SDS011;64115;50.170;8.242;2023-07-13T05:12:16;3.67;;;1.10;;
8260;SDS011;64115;50.170;8.242;2023-07-13T05:14:43;2.57;;;1.30;;
8260;SDS011;64115;50.170;8.242;2023-07-13T05:17:10;1.63;;;1.00;;
8260;SDS011;64115;50.170;8.242;2023-07-13T05:19:38;2.83;;;1.20;;
8260;SDS011;64115;50.170;8.242;2023-07-13T05:22:05;1.60;;;1.10;;
8260;SDS011;64115;50.170;8.242;2023-07-13T05:24:32;1.20;;;1.10;;
8260;SDS011;64115;50.170;8.242;2023-07-13T05:26:58;1.10;;;1.03;;
8260;SDS011;64115;50.170;8.242;2023-07-13T05:29:25;2.27;;;1.13;;
8260;SDS011;64115;50.170;8.242;2023-07-13T05:31:52;1.37;;;0.90;;
8260;SDS011;64115;50.170;8.242;2023-07-13T05:34:19;1.73;;;1.07;;
8260;SDS011;64115;50.170;8.242;2023-07-13T05:36:47;2.40;;;1.10;;
8260;SDS011;64115;50.170;8.242;2023-07-13T05:39:14;2.17;;;0.90;;
8260;SDS011;64115;50.170;8.242;2023-07-13T05:41:41;1.03;;;0.90;;
8260;SDS011;64115;50.170;8.242;2023-07-13T05:44:07;2.30;;;0.90;;
8260;SDS011;64115;50.170;8.242;2023-07-13T05:46:37;1.70;;;0.87;;
8260;SDS011;64115;50.170;8.242;2023-07-13T05:49:04;1.70;;;0.73;;
8260;SDS011;64115;50.170;8.242;2023-07-13T05:51:33;2.57;;;1.03;;
8260;SDS011;64115;50.170;8.242;2023-07-13T05:54:01;2.07;;;1.10;;
8260;SDS011;64115;50.170;8.242;2023-07-13T05:56:28;1.40;;;1.10;;
8260;SDS011;64115;50.170;8.242;2023-07-13T05:58:55;2.20;;;1.03;;
8260;SDS011;64115;50.170;8.242;2023-07-13T06:01:24;1.10;;;0.77;;
8260;SDS011;64115;50.170;8.242;2023-07-13T06:03:51;2.10;;;0.80;;
8260;SDS011;64115;50.170;8.242;2023-07-13T06:06:17;0.70;;;0.70;;
8260;SDS011;64115;50.170;8.242;2023-07-13T06:08:44;1.13;;;0.57;;
8260;SDS011;64115;50.170;8.242;2023-07-13T06:11:14;1.23;;;0.83;;
8260;SDS011;64115;50.170;8.242;2023-07-13T06:13:42;1.20;;;0.73;;
8260;SDS011;64115;50.170;8.242;2023-07-13T06:16:09;0.90;;;0.80;;
8260;SDS011;64115;50.170;8.242;2023-07-13T06:18:37;1.80;;;0.70;;
8260;SDS011;64115;50.170;8.242;2023-07-13T06:21:07;0.60;;;0.57;;
8260;SDS011;64115;50.170;8.242;2023-07-13T06:23:34;0.80;;;0.77;;
8260;SDS011;64115;50.170;8.242;2023-07-13T06:26:03;3.03;;;0.80;;
8260;SDS011;64115;50.170;8.242;2023-07-13T06:28:32;1.53;;;0.67;;
8260;SDS011;64115;50.170;8.242;2023-07-13T06:31:00;0.90;;;0.70;;
8260;SDS011;64115;50.170;8.242;2023-07-13T06:33:27;1.10;;;0.60;;
8260;SDS011;64115;50.170;8.242;2023-07-13T06:35:54;3.90;;;0.53;;
8260;SDS011;64115;50.170;8.242;2023-07-13T06:38:21;2.33;;;0.57;;
8260;SDS011;64115;50.170;8.242;2023-07-13T06:40:47;1.00;;;0.80;;
8260;SDS011;64115;50.170;8.242;2023-07-13T06:43:14;1.07;;;0.67;;
8260;SDS011;64115;50.170;8.242;2023-07-13T06:45:44;0.73;;;0.67;;
8260;SDS011;64115;50.170;8.242;2023-07-13T06:48:13;0.57;;;0.50;;
8260;SDS011;64115;50.170;8.242;2023-07-13T06:50:41;1.40;;;0.63;;
8260;SDS011;64115;50.170;8.242;2023-07-13T06:53:09;0.70;;;0.60;;
8260;SDS011;64115;50.170;8.242;2023-07-13T06:55:37;0.37;;;0.37;;
8260;SDS011;64115;50.170;8.242;2023-07-13T06:58:05;2.20;;;0.95;;
8260;SDS011;64115;50.170;8.242;2023-07-13T07:00:32;1.23;;;0.60;;
8260;SDS011;64115;50.170;8.242;2023-07-13T07:03:00;1.67;;;0.60;;
8260;SDS011;64115;50.170;8.242;2023-07-13T07:05:27;1.33;;;0.60;;
8260;SDS011;64115;50.170;8.242;2023-07-13T07:07:54;1.07;;;0.50;;
8260;SDS011;64115;50.170;8.242;2023-07-13T07:10:21;3.23;;;0.63;;
8260;SDS011;64115;50.170;8.242;2023-07-13T07:12:48;0.87;;;0.70;;
8260;SDS011;64115;50.170;8.242;2023-07-13T07:15:15;0.83;;;0.70;;
8260;SDS011;64115;50.170;8.242;2023-07-13T07:17:43;1.33;;;0.60;;
8260;SDS011;64115;50.170;8.242;2023-07-13T07:20:11;1.03;;;0.80;;
8260;SDS011;64115;50.170;8.242;2023-07-13T07:22:38;1.27;;;0.60;;
8260;SDS011;64115;50.170;8.242;2023-07-13T07:25:05;2.83;;;1.23;;
8260;SDS011;64115;50.170;8.242;2023-07-13T07:27:32;2.30;;;0.90;;
8260;SDS011;64115;50.170;8.242;2023-07-13T07:29:59;1.00;;;0.60;;
8260;SDS011;64115;50.170;8.242;2023-07-13T07:32:28;1.63;;;0.90;;
8260;SDS011;64115;50.170;8.242;2023-07-13T07:34:56;1.03;;;0.77;;
8260;SDS011;64115;50.170;8.242;2023-07-13T07:37:24;1.57;;;0.70;;
8260;SDS011;64115;50.170;8.242;2023-07-13T07:39:51;3.13;;;0.90;;
8260;SDS011;64115;50.170;8.242;2023-07-13T07:42:18;3.20;;;0.80;;
8260;SDS011;64115;50.170;8.242;2023-07-13T07:44:45;0.93;;;0.77;;
8260;SDS011;64115;50.170;8.242;2023-07-13T07:47:11;1.63;;;0.70;;
8260;SDS011;64115;50.170;8.242;2023-07-13T07:49:38;1.73;;;0.80;;
8260;SDS011;64115;50.170;8.242;2023-07-13T07:52:05;1.47;;;0.90;;
8260;SDS011;64115;50.170;8.242;2023-07-13T07:54:34;2.00;;;1.00;;
8260;SDS011;64115;50.170;8.242;2023-07-13T07:57:01;0.67;;;0.67;;
8260;SDS011;64115;50.170;8.242;2023-07-13T07:59:28;0.83;;;0.67;;
8260;SDS011;64115;50.170;8.242;2023-07-13T08:01:55;0.80;;;0.80;;
8260;SDS011;64115;50.170;8.242;2023-07-13T08:04:22;1.13;;;0.67;;
8260;SDS011;64115;50.170;8.242;2023-07-13T08:06:48;1.47;;;0.70;;
8260;SDS011;64115;50.170;8.242;2023-07-13T08:09:15;0.70;;;0.50;;
8260;SDS011;64115;50.170;8.242;2023-07-13T08:11:43;0.77;;;0.50;;
8260;SDS011;64115;50.170;8.242;2023-07-13T08:14:10;1.43;;;0.70;;
8260;SDS011;64115;50.170;8.242;2023-07-13T08:16:37;0.50;;;0.50;;
8260;SDS011;64115;50.170;8.242;2023-07-13T08:19:04;1.50;;;0.70;;
8260;SDS011;64115;50.170;8.242;2023-07-13T08:21:31;0.97;;;0.70;;
8260;SDS011;64115;50.170;8.242;2023-07-13T08:23:58;1.07;;;0.57;;
8260;SDS011;64115;50.170;8.242;2023-07-13T08:26:24;0.83;;;0.70;;
8260;SDS011;64115;50.170;8.242;2023-07-13T08:28:52;1.37;;;1.00;;
8260;SDS011;64115;50.170;8.242;2023-07-13T08:31:19;0.90;;;0.60;;
8260;SDS011;64115;50.170;8.242;2023-07-13T08:33:48;1.10;;;1.00;;
8260;SDS011;64115;50.170;8.242;2023-07-13T08:36:17;0.80;;;0.70;;
8260;SDS011;64115;50.170;8.242;2023-07-13T08:38:44;1.83;;;0.70;;
8260;SDS011;64115;50.170;8.242;2023-07-13T08:41:12;1.03;;;0.67;;
8260;SDS011;64115;50.170;8.242;2023-07-13T08:43:40;0.70;;;0.70;;
8260;SDS011;64115;50.170;8.242;2023-07-13T08:46:11;0.63;;;0.50;;
8260;SDS011;64115;50.170;8.242;2023-07-13T08:48:41;1.37;;;1.00;;
8260;SDS011;64115;50.170;8.242;2023-07-13T08:51:16;0.73;;;0.60;;
8260;SDS011;64115;50.170;8.242;2023-07-13T08:53:59;0.60;;;0.60;;
8260;SDS011;64115;50.170;8.242;2023-07-13T08:56:28;1.67;;;0.60;;
8260;SDS011;64115;50.170;8.242;2023-07-13T08:58:57;1.20;;;0.50;;
8260;SDS011;64115;50.170;8.242;2023-07-13T09:01:30;1.47;;;0.57;;
8260;SDS011;64115;50.170;8.242;2023-07-13T09:04:01;0.60;;;0.57;;
8260;SDS011;64115;50.170;8.242;2023-07-13T09:06:34;1.00;;;0.70;;
8260;SDS011;64115;50.170;8.242;2023-07-13T09:09:10;1.03;;;0.73;;
8260;SDS011;64115;50.170;8.242;2023-07-13T09:11:46;0.47;;;0.40;;
8260;SDS011;64115;50.170;8.242;2023-07-13T09:14:26;1.43;;;0.53;;
8260;SDS011;64115;50.170;8.242;2023-07-13T09:17:04;0.70;;;0.40;;
8260;SDS011;64115;50.170;8.242;2023-07-13T09:19:32;0.73;;;0.60;;
8260;SDS011;64115;50.170;8.242;2023-07-13T09:22:01;1.07;;;0.50;;
8260;SDS011;64115;50.170;8.242;2023-07-13T09:24:35;6.53;;;1.00;;
8260;SDS011;64115;50.170;8.242;2023-07-13T09:27:08;1.53;;;0.63;;
8260;SDS011;64115;50.170;8.242;2023-07-13T09:29:42;0.80;;;0.70;;
8260;SDS011;64115;50.170;8.242;2023-07-13T09:32:13;0.80;;;0.77;;
8260;SDS011;64115;50.170;8.242;2023-07-13T09:34:43;0.87;;;0.70;;
8260;SDS011;64115;50.170;8.242;2023-07-13T09:37:16;0.70;;;0.70;;
8260;SDS011;64115;50.170;8.242;2023-07-13T09:39:44;0.93;;;0.60;;
8260;SDS011;64115;50.170;8.242;2023-07-13T09:42:12;1.07;;;0.70;;
8260;SDS011;64115;50.170;8.242;2023-07-13T09:44:43;1.10;;;0.73;;
8260;SDS011;64115;50.170;8.242;2023-07-13T09:47:20;4.97;;;1.00;;
8260;SDS011;64115;50.170;8.242;2023-07-13T09:49:48;1.43;;;0.87;;
8260;SDS011;64115;50.170;8.242;2023-07-13T09:52:21;2.00;;;1.50;;
8260;SDS011;64115;50.170;8.242;2023-07-13T09:54:49;1.23;;;0.80;;
8260;SDS011;64115;50.170;8.242;2023-07-13T09:57:18;1.00;;;0.90;;
8260;SDS011;64115;50.170;8.242;2023-07-13T09:59:49;1.17;;;0.80;;
8260;SDS011;64115;50.170;8.242;2023-07-13T10:02:25;3.97;;;0.80;;
8260;SDS011;64115;50.170;8.242;2023-07-13T10:04:57;1.10;;;0.80;;
8260;SDS011;64115;50.170;8.242;2023-07-13T10:07:25;1.17;;;1.00;;
8260;SDS011;64115;50.170;8.242;2023-07-13T10:09:52;3.40;;;1.00;;
8260;SDS011;64115;50.170;8.242;2023-07-13T10:12:20;1.67;;;1.23;;
8260;SDS011;64115;50.170;8.242;2023-07-13T10:14:48;1.17;;;1.00;;
8260;SDS011;64115;50.170;8.242;2023-07-13T10:17:18;1.10;;;0.77;;
8260;SDS011;64115;50.170;8.242;2023-07-13T10:19:55;1.17;;;0.90;;
8260;SDS011;64115;50.170;8.242;2023-07-13T10:22:26;0.90;;;0.80;;
8260;SDS011;64115;50.170;8.242;2023-07-13T10:24:57;0.73;;;0.73;;
8260;SDS011;64115;50.170;8.242;2023-07-13T10:27:29;0.90;;;0.90;;
8260;SDS011;64115;50.170;8.242;2023-07-13T10:30:01;2.23;;;0.80;;
8260;SDS011;64115;50.170;8.242;2023-07-13T10:32:37;0.90;;;0.90;;
8260;SDS011;64115;50.170;8.242;2023-07-13T10:35:04;2.47;;;1.00;;
8260;SDS011;64115;50.170;8.242;2023-07-13T10:37:36;1.90;;;0.80;;
8260;SDS011;64115;50.170;8.242;2023-07-13T10:40:12;1.80;;;1.10;;
8260;SDS011;64115;50.170;8.242;2023-07-13T10:42:41;2.47;;;1.00;;
8260;SDS011;64115;50.170;8.242;2023-07-13T10:45:12;1.13;;;0.80;;
8260;SDS011;64115;50.170;8.242;2023-07-13T10:47:42;1.73;;;0.80;;
8260;SDS011;64115;50.170;8.242;2023-07-13T10:50:12;0.80;;;0.80;;
8260;SDS011;64115;50.170;8.242;2023-07-13T10:52:45;1.33;;;0.70;;
8260;SDS011;64115;50.170;8.242;2023-07-13T10:55:32;2.53;;;0.90;;
8260;SDS011;64115;50.170;8.242;2023-07-13T10:58:02;1.83;;;1.07;;
8260;SDS011;64115;50.170;8.242;2023-07-13T11:00:43;0.80;;;0.80;;
8260;SDS011;64115;50.170;8.242;2023-07-13T11:03:16;0.90;;;0.90;;
8260;SDS011;64115;50.170;8.242;2023-07-13T11:05:47;0.87;;;0.73;;
8260;SDS011;64115;50.170;8.242;2023-07-13T11:08:19;0.60;;;0.60;;
8260;SDS011;64115;50.170;8.242;2023-07-13T11:10:57;0.63;;;0.63;;
8260;SDS011;64115;50.170;8.242;2023-07-13T11:16:33;0.90;;;0.80;;
8260;SDS011;64115;50.170;8.242;2023-07-13T11:19:23;2.30;;;0.90;;
8260;SDS011;64115;50.170;8.242;2023-07-13T11:22:12;0.70;;;0.70;;
8260;SDS011;64115;50.170;8.242;2023-07-13T11:27:49;1.77;;;1.00;;
8260;SDS011;64115;50.170;8.242;2023-07-13T11:30:21;0.97;;;0.90;;
8260;SDS011;64115;50.170;8.242;2023-07-13T11:35:53;0.90;;;0.90;;
8260;SDS011;64115;50.170;8.242;2023-07-13T11:38:31;6.27;;;0.87;;
8260;SDS011;64115;50.170;8.242;2023-07-13T11:41:02;0.80;;;0.80;;
8260;SDS011;64115;50.170;8.242;2023-07-13T11:43:31;1.10;;;1.10;;
8260;SDS011;64115;50.170;8.242;2023-07-13T11:46:11;2.37;;;1.33;;
8260;SDS011;64115;50.170;8.242;2023-07-13T11:48:38;1.10;;;1.10;;
8260;SDS011;64115;50.170;8.242;2023-07-13T11:51:10;1.13;;;0.93;;
8260;SDS011;64115;50.170;8.242;2023-07-13T11:53:46;1.30;;;1.10;;
8260;SDS011;64115;50.170;8.242;2023-07-13T11:56:15;1.10;;;0.80;;
8260;SDS011;64115;50.170;8.242;2023-07-13T11:58:42;1.13;;;0.97;;
8260;SDS011;64115;50.170;8.242;2023-07-13T12:01:10;2.70;;;1.00;;
8260;SDS011;64115;50.170;8.242;2023-07-13T12:03:44;1.00;;;0.70;;
8260;SDS011;64115;50.170;8.242;2023-07-13T12:06:21;1.53;;;1.00;;
8260;SDS011;64115;50.170;8.242;2023-07-13T12:08:57;1.30;;;0.93;;
8260;SDS011;64115;50.170;8.242;2023-07-13T12:11:25;2.83;;;0.97;;
8260;SDS011;64115;50.170;8.242;2023-07-13T12:13:53;1.30;;;1.00;;
8260;SDS011;64115;50.170;8.242;2023-07-13T12:16:23;2.23;;;0.90;;
8260;SDS011;64115;50.170;8.242;2023-07-13T12:18:54;1.30;;;1.20;;
8260;SDS011;64115;50.170;8.242;2023-07-13T12:21:27;2.83;;;0.70;;
8260;SDS011;64115;50.170;8.242;2023-07-13T12:23:57;0.83;;;0.83;;
8260;SDS011;64115;50.170;8.242;2023-07-13T12:26:26;1.20;;;0.90;;
8260;SDS011;64115;50.170;8.242;2023-07-13T12:28:54;1.00;;;0.77;;
8260;SDS011;64115;50.170;8.242;2023-07-13T12:31:23;1.07;;;0.97;;
8260;SDS011;64115;50.170;8.242;2023-07-13T12:33:56;1.20;;;1.10;;
8260;SDS011;64115;50.170;8.242;2023-07-13T12:36:25;2.17;;;0.93;;
8260;SDS011;64115;50.170;8.242;2023-07-13T12:38:54;2.13;;;0.97;;
8260;SDS011;64115;50.170;8.242;2023-07-13T12:41:21;1.10;;;0.90;;
8260;SDS011;64115;50.170;8.242;2023-07-13T12:43:49;0.80;;;0.80;;
8260;SDS011;64115;50.170;8.242;2023-07-13T12:46:17;2.13;;;0.93;;
8260;SDS011;64115;50.170;8.242;2023-07-13T12:48:48;2.13;;;1.17;;
8260;SDS011;64115;50.170;8.242;2023-07-13T12:51:16;1.43;;;1.00;;
8260;SDS011;64115;50.170;8.242;2023-07-13T12:53:50;1.30;;;1.00;;
8260;SDS011;64115;50.170;8.242;2023-07-13T12:56:23;1.73;;;1.00;;
8260;SDS011;64115;50.170;8.242;2023-07-13T12:58:56;1.97;;;1.03;;
8260;SDS011;64115;50.170;8.242;2023-07-13T13:01:25;1.30;;;1.10;;
8260;SDS011;64115;50.170;8.242;2023-07-13T13:03:54;2.10;;;1.10;;
8260;SDS011;64115;50.170;8.242;2023-07-13T13:06:22;1.80;;;1.07;;
8260;SDS011;64115;50.170;8.242;2023-07-13T13:08:52;3.07;;;1.20;;
8260;SDS011;64115;50.170;8.242;2023-07-13T13:11:21;0.90;;;0.80;;
8260;SDS011;64115;50.170;8.242;2023-07-13T13:13:49;1.10;;;1.00;;
8260;SDS011;64115;50.170;8.242;2023-07-13T13:16:19;1.40;;;1.30;;
8260;SDS011;64115;50.170;8.242;2023-07-13T13:18:48;0.77;;;0.77;;
8260;SDS011;64115;50.170;8.242;2023-07-13T13:21:15;0.90;;;0.90;;
8260;SDS011;64115;50.170;8.242;2023-07-13T13:23:42;2.53;;;1.20;;
8260;SDS011;64115;50.170;8.242;2023-07-13T13:26:12;2.60;;;0.90;;
8260;SDS011;64115;50.170;8.242;2023-07-13T13:28:41;1.77;;;1.20;;
8260;SDS011;64115;50.170;8.242;2023-07-13T13:31:09;2.30;;;0.97;;
8260;SDS011;64115;50.170;8.242;2023-07-13T13:33:38;1.10;;;1.00;;
8260;SDS011;64115;50.170;8.242;2023-07-13T13:36:08;1.93;;;0.97;;
8260;SDS011;64115;50.170;8.242;2023-07-13T13:38:41;2.00;;;1.10;;
8260;SDS011;64115;50.170;8.242;2023-07-13T13:41:09;1.50;;;0.97;;
8260;SDS011;64115;50.170;8.242;2023-07-13T13:43:39;3.67;;;1.00;;
8260;SDS011;64115;50.170;8.242;2023-07-13T13:46:15;1.83;;;1.13;;
8260;SDS011;64115;50.170;8.242;2023-07-13T13:48:44;2.30;;;1.00;;
8260;SDS011;64115;50.170;8.242;2023-07-13T13:51:13;1.57;;;0.97;;
8260;SDS011;64115;50.170;8.242;2023-07-13T13:53:41;1.27;;;1.00;;
8260;SDS011;64115;50.170;8.242;2023-07-13T13:56:10;1.90;;;1.00;;
8260;SDS011;64115;50.170;8.242;2023-07-13T13:58:37;2.80;;;1.00;;
8260;SDS011;64115;50.170;8.242;2023-07-13T14:01:08;1.13;;;1.00;;
8260;SDS011;64115;50.170;8.242;2023-07-13T14:03:39;1.60;;;0.90;;
8260;SDS011;64115;50.170;8.242;2023-07-13T14:06:07;1.30;;;1.00;;
8260;SDS011;64115;50.170;8.242;2023-07-13T14:08:35;1.00;;;0.90;;
8260;SDS011;64115;50.170;8.242;2023-07-13T14:11:03;1.30;;;1.20;;
8260;SDS011;64115;50.170;8.242;2023-07-13T14:13:35;1.30;;;0.90;;
8260;SDS011;64115;50.170;8.242;2023-07-13T14:16:10;2.97;;;1.03;;
8260;SDS011;64115;50.170;8.242;2023-07-13T14:18:38;1.47;;;1.00;;
8260;SDS011;64115;50.170;8.242;2023-07-13T14:21:08;1.40;;;0.90;;
8260;SDS011;64115;50.170;8.242;2023-07-13T14:23:39;0.90;;;0.90;;
8260;SDS011;64115;50.170;8.242;2023-07-13T14:26:08;6.30;;;0.97;;
8260;SDS011;64115;50.170;8.242;2023-07-13T14:28:37;1.40;;;1.00;;
8260;SDS011;64115;50.170;8.242;2023-07-13T14:31:07;1.37;;;1.27;;
8260;SDS011;64115;50.170;8.242;2023-07-13T14:33:35;1.67;;;1.00;;
8260;SDS011;64115;50.170;8.242;2023-07-13T14:36:02;1.10;;;0.93;;
8260;SDS011;64115;50.170;8.242;2023-07-13T14:38:35;0.70;;;0.70;;
8260;SDS011;64115;50.170;8.242;2023-07-13T14:41:02;1.30;;;1.00;;
8260;SDS011;64115;50.170;8.242;2023-07-13T14:43:30;1.10;;;0.80;;
8260;SDS011;64115;50.170;8.242;2023-07-13T14:45:57;1.27;;;0.90;;
8260;SDS011;64115;50.170;8.242;2023-07-13T14:48:24;1.27;;;0.80;;
8260;SDS011;64115;50.170;8.242;2023-07-13T14:50:53;2.00;;;0.90;;
8260;SDS011;64115;50.170;8.242;2023-07-13T14:53:22;1.23;;;0.80;;
8260;SDS011;64115;50.170;8.242;2023-07-13T14:55:53;1.17;;;0.80;;
8260;SDS011;64115;50.170;8.242;2023-07-13T14:58:20;0.80;;;0.80;;
8260;SDS011;64115;50.170;8.242;2023-07-13T15:00:47;1.20;;;0.90;;
8260;SDS011;64115;50.170;8.242;2023-07-13T15:03:16;1.73;;;1.10;;
8260;SDS011;64115;50.170;8.242;2023-07-13T15:05:47;0.63;;;0.63;;
8260;SDS011;64115;50.170;8.242;2023-07-13T15:08:16;1.43;;;0.83;;
8260;SDS011;64115;50.170;8.242;2023-07-13T15:10:42;1.30;;;1.00;;
8260;SDS011;64115;50.170;8.242;2023-07-13T15:13:17;1.33;;;1.00;;
8260;SDS011;64115;50.170;8.242;2023-07-13T15:15:45;2.07;;;0.80;;
8260;SDS011;64115;50.170;8.242;2023-07-13T15:18:15;2.90;;;1.00;;
8260;SDS011;64115;50.170;8.242;2023-07-13T15:20:44;2.27;;;0.70;;
8260;SDS011;64115;50.170;8.242;2023-07-13T15:23:11;2.43;;;1.07;;
8260;SDS011;64115;50.170;8.242;2023-07-13T15:25:40;1.63;;;0.87;;